Terminal Aerodrome Forecast
Issued by NWS North Platte, NE

Home | Current Version | Previous Version | Text Only | Print | Product List | Glossary Off
Versions: 1 2 3 4 5 6 7 8 9 10 11 12

971
FTUS43 KLBF 170520
TAFVTN
TAF
KVTN 170520Z 1706/1806 23008KT P6SM SCT250
     FM171600 34012G18KT P6SM SCT250
     FM171800 34018G27KT P6SM SCT250
     FM180000 27006KT P6SM SCT150=

USA.gov is the U.S. government's official web portal to all federal, state and local government web resources and services.